sensor_id;sensor_type;location;lat;lon;timestamp;temperature;humidity
56729;DHT22;42612;52.232;7.560;2024-02-26T00:02:17;10.30;55.20
56729;DHT22;42612;52.232;7.560;2024-02-26T00:04:43;10.30;55.30
56729;DHT22;42612;52.232;7.560;2024-02-26T00:07:08;10.20;55.30
56729;DHT22;42612;52.232;7.560;2024-02-26T00:09:34;10.20;55.40
56729;DHT22;42612;52.232;7.560;2024-02-26T00:12:02;10.20;55.50
56729;DHT22;42612;52.232;7.560;2024-02-26T00:14:29;10.20;55.60
56729;DHT22;42612;52.232;7.560;2024-02-26T00:16:56;10.10;56.20
56729;DHT22;42612;52.232;7.560;2024-02-26T00:19:21;10.10;55.60
56729;DHT22;42612;52.232;7.560;2024-02-26T00:21:47;10.10;55.60
56729;DHT22;42612;52.232;7.560;2024-02-26T00:24:13;10.10;55.60
56729;DHT22;42612;52.232;7.560;2024-02-26T00:26:39;10.10;55.70
56729;DHT22;42612;52.232;7.560;2024-02-26T00:29:05;10.10;55.80
56729;DHT22;42612;52.232;7.560;2024-02-26T00:31:31;10.00;55.90
56729;DHT22;42612;52.232;7.560;2024-02-26T00:33:56;10.00;56.00
56729;DHT22;42612;52.232;7.560;2024-02-26T00:36:22;10.00;56.10
56729;DHT22;42612;52.232;7.560;2024-02-26T00:38:48;10.10;56.00
56729;DHT22;42612;52.232;7.560;2024-02-26T00:41:17;10.10;56.00
56729;DHT22;42612;52.232;7.560;2024-02-26T00:43:43;10.10;56.00
56729;DHT22;42612;52.232;7.560;2024-02-26T00:46:09;10.10;56.00
56729;DHT22;42612;52.232;7.560;2024-02-26T00:48:35;10.10;55.90
56729;DHT22;42612;52.232;7.560;2024-02-26T00:51:01;10.10;56.60
56729;DHT22;42612;52.232;7.560;2024-02-26T00:53:26;10.10;56.00
56729;DHT22;42612;52.232;7.560;2024-02-26T00:55:54;10.20;56.10
56729;DHT22;42612;52.232;7.560;2024-02-26T00:58:19;10.20;56.10
56729;DHT22;42612;52.232;7.560;2024-02-26T01:00:45;10.20;56.10
56729;DHT22;42612;52.232;7.560;2024-02-26T01:03:11;10.20;56.20
56729;DHT22;42612;52.232;7.560;2024-02-26T01:05:36;10.20;56.20
56729;DHT22;42612;52.232;7.560;2024-02-26T01:08:04;10.20;56.20
56729;DHT22;42612;52.232;7.560;2024-02-26T01:10:29;10.20;56.30
56729;DHT22;42612;52.232;7.560;2024-02-26T01:12:56;10.20;57.00
56729;DHT22;42612;52.232;7.560;2024-02-26T01:15:22;10.20;56.30
56729;DHT22;42612;52.232;7.560;2024-02-26T01:17:49;10.20;56.30
56729;DHT22;42612;52.232;7.560;2024-02-26T01:20:16;10.20;56.30
56729;DHT22;42612;52.232;7.560;2024-02-26T01:22:43;10.20;56.30
56729;DHT22;42612;52.232;7.560;2024-02-26T01:25:09;10.20;56.30
56729;DHT22;42612;52.232;7.560;2024-02-26T01:27:36;10.20;56.30
56729;DHT22;42612;52.232;7.560;2024-02-26T01:30:05;10.20;56.40
56729;DHT22;42612;52.232;7.560;2024-02-26T01:32:32;10.20;56.40
56729;DHT22;42612;52.232;7.560;2024-02-26T01:34:57;10.20;56.40
56729;DHT22;42612;52.232;7.560;2024-02-26T01:37:23;10.20;56.40
56729;DHT22;42612;52.232;7.560;2024-02-26T01:39:49;10.20;56.40
56729;DHT22;42612;52.232;7.560;2024-02-26T01:42:15;10.20;56.30
56729;DHT22;42612;52.232;7.560;2024-02-26T01:44:41;10.20;56.30
56729;DHT22;42612;52.232;7.560;2024-02-26T01:47:11;10.20;56.30
56729;DHT22;42612;52.232;7.560;2024-02-26T01:49:37;10.20;56.20
56729;DHT22;42612;52.232;7.560;2024-02-26T01:52:06;10.20;56.90
56729;DHT22;42612;52.232;7.560;2024-02-26T01:54:34;10.20;56.30
56729;DHT22;42612;52.232;7.560;2024-02-26T01:57:01;10.20;56.40
56729;DHT22;42612;52.232;7.560;2024-02-26T01:59:27;10.20;56.40
56729;DHT22;42612;52.232;7.560;2024-02-26T02:01:55;10.20;56.40
56729;DHT22;42612;52.232;7.560;2024-02-26T02:04:23;10.20;56.40
56729;DHT22;42612;52.232;7.560;2024-02-26T02:06:50;10.20;56.40
56729;DHT22;42612;52.232;7.560;2024-02-26T02:09:17;10.20;56.40
56729;DHT22;42612;52.232;7.560;2024-02-26T02:11:43;10.20;56.40
56729;DHT22;42612;52.232;7.560;2024-02-26T02:14:10;10.20;56.40
56729;DHT22;42612;52.232;7.560;2024-02-26T02:16:35;10.20;56.40
56729;DHT22;42612;52.232;7.560;2024-02-26T02:19:01;10.20;56.40
56729;DHT22;42612;52.232;7.560;2024-02-26T02:21:27;10.20;56.50
56729;DHT22;42612;52.232;7.560;2024-02-26T02:23:53;10.20;56.50
56729;DHT22;42612;52.232;7.560;2024-02-26T02:26:19;10.20;56.50
56729;DHT22;42612;52.232;7.560;2024-02-26T02:28:46;10.20;56.50
56729;DHT22;42612;52.232;7.560;2024-02-26T02:31:13;10.30;56.50
56729;DHT22;42612;52.232;7.560;2024-02-26T02:33:39;10.30;56.50
56729;DHT22;42612;52.232;7.560;2024-02-26T02:36:05;10.30;56.50
56729;DHT22;42612;52.232;7.560;2024-02-26T02:38:37;10.30;56.50
56729;DHT22;42612;52.232;7.560;2024-02-26T02:41:04;10.30;57.10
56729;DHT22;42612;52.232;7.560;2024-02-26T02:43:30;10.20;56.50
56729;DHT22;42612;52.232;7.560;2024-02-26T02:45:56;10.20;56.60
56729;DHT22;42612;52.232;7.560;2024-02-26T02:48:21;10.20;56.40
56729;DHT22;42612;52.232;7.560;2024-02-26T02:50:47;10.20;56.40
56729;DHT22;42612;52.232;7.560;2024-02-26T02:53:13;10.20;56.40
56729;DHT22;42612;52.232;7.560;2024-02-26T02:55:39;10.20;56.40
56729;DHT22;42612;52.232;7.560;2024-02-26T02:58:04;10.20;56.40
56729;DHT22;42612;52.232;7.560;2024-02-26T03:00:30;10.20;56.40
56729;DHT22;42612;52.232;7.560;2024-02-26T03:02:56;10.20;56.30
56729;DHT22;42612;52.232;7.560;2024-02-26T03:05:22;10.10;56.20
56729;DHT22;42612;52.232;7.560;2024-02-26T03:07:47;10.10;56.30
56729;DHT22;42612;52.232;7.560;2024-02-26T03:10:13;10.10;56.30
56729;DHT22;42612;52.232;7.560;2024-02-26T03:12:39;10.00;56.20
56729;DHT22;42612;52.232;7.560;2024-02-26T03:15:05;10.00;56.30
56729;DHT22;42612;52.232;7.560;2024-02-26T03:17:31;10.00;56.30
56729;DHT22;42612;52.232;7.560;2024-02-26T03:19:57;10.00;56.40
56729;DHT22;42612;52.232;7.560;2024-02-26T03:22:22;9.90;56.50
56729;DHT22;42612;52.232;7.560;2024-02-26T03:24:48;9.90;56.60
56729;DHT22;42612;52.232;7.560;2024-02-26T03:27:14;9.90;56.50
56729;DHT22;42612;52.232;7.560;2024-02-26T03:29:40;9.90;56.50
56729;DHT22;42612;52.232;7.560;2024-02-26T03:32:06;9.80;56.40
56729;DHT22;42612;52.232;7.560;2024-02-26T03:34:32;9.80;56.50
56729;DHT22;42612;52.232;7.560;2024-02-26T03:37:01;9.70;56.70
56729;DHT22;42612;52.232;7.560;2024-02-26T03:39:27;9.70;56.80
56729;DHT22;42612;52.232;7.560;2024-02-26T03:41:53;9.70;57.00
56729;DHT22;42612;52.232;7.560;2024-02-26T03:44:19;9.60;57.70
56729;DHT22;42612;52.232;7.560;2024-02-26T03:46:45;9.60;57.10
56729;DHT22;42612;52.232;7.560;2024-02-26T03:49:11;9.70;57.20
56729;DHT22;42612;52.232;7.560;2024-02-26T03:51:37;9.60;57.10
56729;DHT22;42612;52.232;7.560;2024-02-26T03:54:03;9.70;57.30
56729;DHT22;42612;52.232;7.560;2024-02-26T03:56:28;9.70;57.30
56729;DHT22;42612;52.232;7.560;2024-02-26T03:58:55;9.70;57.60
56729;DHT22;42612;52.232;7.560;2024-02-26T04:01:21;9.70;57.20
56729;DHT22;42612;52.232;7.560;2024-02-26T04:03:47;9.80;57.20
56729;DHT22;42612;52.232;7.560;2024-02-26T04:06:12;9.80;57.80
56729;DHT22;42612;52.232;7.560;2024-02-26T04:08:43;9.90;57.20
56729;DHT22;42612;52.232;7.560;2024-02-26T04:11:09;9.90;57.10
56729;DHT22;42612;52.232;7.560;2024-02-26T04:13:35;10.00;57.10
56729;DHT22;42612;52.232;7.560;2024-02-26T04:16:01;10.00;57.10
56729;DHT22;42612;52.232;7.560;2024-02-26T04:18:28;10.00;57.10
56729;DHT22;42612;52.232;7.560;2024-02-26T04:20:53;10.10;57.10
56729;DHT22;42612;52.232;7.560;2024-02-26T04:23:19;10.10;57.00
56729;DHT22;42612;52.232;7.560;2024-02-26T04:25:45;10.10;56.90
56729;DHT22;42612;52.232;7.560;2024-02-26T04:28:12;10.20;57.00
56729;DHT22;42612;52.232;7.560;2024-02-26T04:30:37;10.20;57.00
56729;DHT22;42612;52.232;7.560;2024-02-26T04:33:03;10.20;56.90
56729;DHT22;42612;52.232;7.560;2024-02-26T04:35:29;10.20;56.80
56729;DHT22;42612;52.232;7.560;2024-02-26T04:37:55;10.20;57.30
56729;DHT22;42612;52.232;7.560;2024-02-26T04:40:21;10.20;56.70
56729;DHT22;42612;52.232;7.560;2024-02-26T04:42:46;10.20;56.70
56729;DHT22;42612;52.232;7.560;2024-02-26T04:45:12;10.20;56.80
56729;DHT22;42612;52.232;7.560;2024-02-26T04:47:38;10.20;56.70
56729;DHT22;42612;52.232;7.560;2024-02-26T04:50:05;10.20;56.70
56729;DHT22;42612;52.232;7.560;2024-02-26T04:52:31;10.20;56.70
56729;DHT22;42612;52.232;7.560;2024-02-26T04:54:56;10.20;56.80
56729;DHT22;42612;52.232;7.560;2024-02-26T04:57:22;10.20;56.80
56729;DHT22;42612;52.232;7.560;2024-02-26T04:59:48;10.20;56.80
56729;DHT22;42612;52.232;7.560;2024-02-26T05:02:14;10.20;56.80
56729;DHT22;42612;52.232;7.560;2024-02-26T05:04:40;10.20;56.70
56729;DHT22;42612;52.232;7.560;2024-02-26T05:07:05;10.10;57.30
56729;DHT22;42612;52.232;7.560;2024-02-26T05:09:32;10.10;56.60
56729;DHT22;42612;52.232;7.560;2024-02-26T05:11:58;10.10;56.60
56729;DHT22;42612;52.232;7.560;2024-02-26T05:14:23;10.10;56.60
56729;DHT22;42612;52.232;7.560;2024-02-26T05:16:49;10.10;56.70
56729;DHT22;42612;52.232;7.560;2024-02-26T05:19:15;10.10;56.80
56729;DHT22;42612;52.232;7.560;2024-02-26T05:21:41;10.10;56.90
56729;DHT22;42612;52.232;7.560;2024-02-26T05:24:08;10.10;56.90
56729;DHT22;42612;52.232;7.560;2024-02-26T05:26:33;10.10;57.50
56729;DHT22;42612;52.232;7.560;2024-02-26T05:28:59;10.10;56.90
56729;DHT22;42612;52.232;7.560;2024-02-26T05:31:26;10.10;56.90
56729;DHT22;42612;52.232;7.560;2024-02-26T05:33:52;10.10;56.80
56729;DHT22;42612;52.232;7.560;2024-02-26T05:36:22;10.10;56.90
56729;DHT22;42612;52.232;7.560;2024-02-26T05:38:49;10.10;56.80
56729;DHT22;42612;52.232;7.560;2024-02-26T05:41:16;10.10;56.80
56729;DHT22;42612;52.232;7.560;2024-02-26T05:43:45;10.10;56.90
56729;DHT22;42612;52.232;7.560;2024-02-26T05:46:11;10.10;56.90
56729;DHT22;42612;52.232;7.560;2024-02-26T05:48:36;10.10;56.90
56729;DHT22;42612;52.232;7.560;2024-02-26T05:51:02;10.10;56.80
56729;DHT22;42612;52.232;7.560;2024-02-26T05:53:29;10.10;57.50
56729;DHT22;42612;52.232;7.560;2024-02-26T05:55:55;10.10;56.90
56729;DHT22;42612;52.232;7.560;2024-02-26T05:58:21;10.10;56.90
56729;DHT22;42612;52.232;7.560;2024-02-26T06:00:47;10.10;56.90
56729;DHT22;42612;52.232;7.560;2024-02-26T06:03:12;10.10;57.00
56729;DHT22;42612;52.232;7.560;2024-02-26T06:05:38;10.10;57.10
56729;DHT22;42612;52.232;7.560;2024-02-26T06:08:04;10.10;56.90
56729;DHT22;42612;52.232;7.560;2024-02-26T06:10:30;10.10;56.90
56729;DHT22;42612;52.232;7.560;2024-02-26T06:12:56;10.10;57.60
56729;DHT22;42612;52.232;7.560;2024-02-26T06:15:22;10.10;56.90
56729;DHT22;42612;52.232;7.560;2024-02-26T06:17:48;10.10;56.90
56729;DHT22;42612;52.232;7.560;2024-02-26T06:20:13;10.10;56.80
56729;DHT22;42612;52.232;7.560;2024-02-26T06:22:42;10.00;56.60
56729;DHT22;42612;52.232;7.560;2024-02-26T06:25:08;10.00;56.50
56729;DHT22;42612;52.232;7.560;2024-02-26T06:27:34;10.00;56.60
56729;DHT22;42612;52.232;7.560;2024-02-26T06:30:00;9.90;56.70
56729;DHT22;42612;52.232;7.560;2024-02-26T06:32:26;9.90;56.90
56729;DHT22;42612;52.232;7.560;2024-02-26T06:34:54;9.80;56.90
56729;DHT22;42612;52.232;7.560;2024-02-26T06:37:20;9.80;57.00
56729;DHT22;42612;52.232;7.560;2024-02-26T06:39:46;9.80;57.10
56729;DHT22;42612;52.232;7.560;2024-02-26T06:42:11;9.80;57.10
56729;DHT22;42612;52.232;7.560;2024-02-26T06:44:37;9.80;57.10
56729;DHT22;42612;52.232;7.560;2024-02-26T06:47:03;9.80;57.10
56729;DHT22;42612;52.232;7.560;2024-02-26T06:49:29;9.80;57.20
56729;DHT22;42612;52.232;7.560;2024-02-26T06:51:55;9.80;57.10
56729;DHT22;42612;52.232;7.560;2024-02-26T06:54:21;9.80;57.10
56729;DHT22;42612;52.232;7.560;2024-02-26T06:56:47;9.70;57.20
56729;DHT22;42612;52.232;7.560;2024-02-26T06:59:12;9.70;57.30
56729;DHT22;42612;52.232;7.560;2024-02-26T07:01:41;9.70;57.30
56729;DHT22;42612;52.232;7.560;2024-02-26T07:04:07;9.70;57.50
56729;DHT22;42612;52.232;7.560;2024-02-26T07:06:33;9.70;57.40
56729;DHT22;42612;52.232;7.560;2024-02-26T07:08:58;9.70;57.30
56729;DHT22;42612;52.232;7.560;2024-02-26T07:11:24;9.80;57.30
56729;DHT22;42612;52.232;7.560;2024-02-26T07:13:50;9.70;57.30
56729;DHT22;42612;52.232;7.560;2024-02-26T07:16:16;9.70;57.30
56729;DHT22;42612;52.232;7.560;2024-02-26T07:18:42;9.70;57.30
56729;DHT22;42612;52.232;7.560;2024-02-26T07:21:09;9.70;57.40
56729;DHT22;42612;52.232;7.560;2024-02-26T07:23:35;9.70;57.40
56729;DHT22;42612;52.232;7.560;2024-02-26T07:26:00;9.70;57.30
56729;DHT22;42612;52.232;7.560;2024-02-26T07:28:26;9.60;57.30
56729;DHT22;42612;52.232;7.560;2024-02-26T07:30:52;9.70;57.50
56729;DHT22;42612;52.232;7.560;2024-02-26T07:33:18;9.70;57.60
56729;DHT22;42612;52.232;7.560;2024-02-26T07:35:43;9.70;57.60
56729;DHT22;42612;52.232;7.560;2024-02-26T07:38:09;9.70;57.70
56729;DHT22;42612;52.232;7.560;2024-02-26T07:40:35;9.70;57.80
56729;DHT22;42612;52.232;7.560;2024-02-26T07:43:01;9.70;57.80
56729;DHT22;42612;52.232;7.560;2024-02-26T07:45:27;9.70;57.70
56729;DHT22;42612;52.232;7.560;2024-02-26T07:47:53;9.80;57.80
56729;DHT22;42612;52.232;7.560;2024-02-26T07:50:19;9.80;57.90
56729;DHT22;42612;52.232;7.560;2024-02-26T07:52:45;9.80;57.80
56729;DHT22;42612;52.232;7.560;2024-02-26T07:55:11;9.80;57.80
56729;DHT22;42612;52.232;7.560;2024-02-26T07:57:37;9.80;57.60
56729;DHT22;42612;52.232;7.560;2024-02-26T08:00:04;9.80;57.60
56729;DHT22;42612;52.232;7.560;2024-02-26T08:02:33;9.80;57.60
56729;DHT22;42612;52.232;7.560;2024-02-26T08:04:59;9.80;57.80
56729;DHT22;42612;52.232;7.560;2024-02-26T08:07:25;9.80;57.90
56729;DHT22;42612;52.232;7.560;2024-02-26T08:09:51;9.80;57.80
56729;DHT22;42612;52.232;7.560;2024-02-26T08:12:16;9.80;57.80
56729;DHT22;42612;52.232;7.560;2024-02-26T08:14:42;9.80;57.80
56729;DHT22;42612;52.232;7.560;2024-02-26T08:17:09;9.80;57.80
56729;DHT22;42612;52.232;7.560;2024-02-26T08:19:35;9.80;57.80
56729;DHT22;42612;52.232;7.560;2024-02-26T08:22:01;9.80;57.80
56729;DHT22;42612;52.232;7.560;2024-02-26T08:24:27;9.80;57.80
56729;DHT22;42612;52.232;7.560;2024-02-26T08:26:53;9.80;57.90
56729;DHT22;42612;52.232;7.560;2024-02-26T08:29:19;9.80;57.90
56729;DHT22;42612;52.232;7.560;2024-02-26T08:31:45;9.80;57.90
56729;DHT22;42612;52.232;7.560;2024-02-26T08:34:11;9.80;57.90
56729;DHT22;42612;52.232;7.560;2024-02-26T08:36:37;9.80;57.90
56729;DHT22;42612;52.232;7.560;2024-02-26T08:39:02;9.80;58.00
56729;DHT22;42612;52.232;7.560;2024-02-26T08:41:28;9.80;58.10
56729;DHT22;42612;52.232;7.560;2024-02-26T08:43:54;9.90;58.20
56729;DHT22;42612;52.232;7.560;2024-02-26T08:46:20;9.80;58.10
56729;DHT22;42612;52.232;7.560;2024-02-26T08:48:46;9.90;58.20
56729;DHT22;42612;52.232;7.560;2024-02-26T08:51:12;9.90;58.20
56729;DHT22;42612;52.232;7.560;2024-02-26T08:53:38;9.90;58.20
56729;DHT22;42612;52.232;7.560;2024-02-26T08:56:05;10.00;58.20
56729;DHT22;42612;52.232;7.560;2024-02-26T08:58:31;10.00;58.10
56729;DHT22;42612;52.232;7.560;2024-02-26T09:00:57;10.00;58.00
56729;DHT22;42612;52.232;7.560;2024-02-26T09:03:23;10.00;57.80
56729;DHT22;42612;52.232;7.560;2024-02-26T09:05:49;10.00;57.90
56729;DHT22;42612;52.232;7.560;2024-02-26T09:08:14;10.00;58.00
56729;DHT22;42612;52.232;7.560;2024-02-26T09:10:41;10.00;58.00
56729;DHT22;42612;52.232;7.560;2024-02-26T09:13:07;10.10;58.70
56729;DHT22;42612;52.232;7.560;2024-02-26T09:15:32;10.10;58.00
56729;DHT22;42612;52.232;7.560;2024-02-26T09:17:58;10.10;58.10
56729;DHT22;42612;52.232;7.560;2024-02-26T09:20:24;10.10;58.10
56729;DHT22;42612;52.232;7.560;2024-02-26T09:22:50;10.10;58.10
56729;DHT22;42612;52.232;7.560;2024-02-26T09:25:17;10.20;58.10
56729;DHT22;42612;52.232;7.560;2024-02-26T09:27:43;10.20;58.20
56729;DHT22;42612;52.232;7.560;2024-02-26T09:30:11;10.20;58.80
56729;DHT22;42612;52.232;7.560;2024-02-26T09:32:37;10.30;58.20
56729;DHT22;42612;52.232;7.560;2024-02-26T09:35:04;10.30;58.20
56729;DHT22;42612;52.232;7.560;2024-02-26T09:37:30;10.30;58.00
56729;DHT22;42612;52.232;7.560;2024-02-26T09:39:56;10.40;58.10
56729;DHT22;42612;52.232;7.560;2024-02-26T09:42:25;10.40;58.10
56729;DHT22;42612;52.232;7.560;2024-02-26T09:44:54;10.40;58.10
56729;DHT22;42612;52.232;7.560;2024-02-26T09:47:23;10.40;58.10
56729;DHT22;42612;52.232;7.560;2024-02-26T09:49:50;10.40;58.10
56729;DHT22;42612;52.232;7.560;2024-02-26T09:52:19;10.50;58.20
56729;DHT22;42612;52.232;7.560;2024-02-26T09:54:48;10.50;58.00
56729;DHT22;42612;52.232;7.560;2024-02-26T09:57:15;10.50;58.10
56729;DHT22;42612;52.232;7.560;2024-02-26T09:59:43;10.50;58.10
56729;DHT22;42612;52.232;7.560;2024-02-26T10:02:12;10.60;58.00
56729;DHT22;42612;52.232;7.560;2024-02-26T10:04:42;10.60;57.90
56729;DHT22;42612;52.232;7.560;2024-02-26T10:07:12;10.60;58.10
56729;DHT22;42612;52.232;7.560;2024-02-26T10:09:38;10.60;58.00
56729;DHT22;42612;52.232;7.560;2024-02-26T10:12:05;10.60;58.10
56729;DHT22;42612;52.232;7.560;2024-02-26T10:14:33;10.70;58.20
56729;DHT22;42612;52.232;7.560;2024-02-26T10:16:59;10.70;58.10
56729;DHT22;42612;52.232;7.560;2024-02-26T10:19:44;10.70;58.00
56729;DHT22;42612;52.232;7.560;2024-02-26T10:22:10;10.70;57.90
56729;DHT22;42612;52.232;7.560;2024-02-26T10:24:36;10.70;58.00
56729;DHT22;42612;52.232;7.560;2024-02-26T10:27:02;10.70;58.00
56729;DHT22;42612;52.232;7.560;2024-02-26T10:29:29;10.70;58.00
56729;DHT22;42612;52.232;7.560;2024-02-26T10:31:54;10.70;58.10
56729;DHT22;42612;52.232;7.560;2024-02-26T10:34:21;10.70;58.20
56729;DHT22;42612;52.232;7.560;2024-02-26T10:36:47;10.80;58.20
56729;DHT22;42612;52.232;7.560;2024-02-26T10:39:13;10.80;58.80
56729;DHT22;42612;52.232;7.560;2024-02-26T10:41:41;10.80;58.10
56729;DHT22;42612;52.232;7.560;2024-02-26T10:44:11;10.80;57.90
56729;DHT22;42612;52.232;7.560;2024-02-26T10:46:40;10.90;57.90
56729;DHT22;42612;52.232;7.560;2024-02-26T10:49:10;10.90;57.80
56729;DHT22;42612;52.232;7.560;2024-02-26T10:51:40;10.90;57.90
56729;DHT22;42612;52.232;7.560;2024-02-26T10:54:08;10.90;57.70
56729;DHT22;42612;52.232;7.560;2024-02-26T10:56:36;10.90;57.70
56729;DHT22;42612;52.232;7.560;2024-02-26T10:59:07;10.90;57.70
56729;DHT22;42612;52.232;7.560;2024-02-26T11:01:35;10.90;57.70
56729;DHT22;42612;52.232;7.560;2024-02-26T11:04:04;10.90;57.70
56729;DHT22;42612;52.232;7.560;2024-02-26T11:06:31;10.90;57.70
56729;DHT22;42612;52.232;7.560;2024-02-26T11:09:01;10.90;57.70
56729;DHT22;42612;52.232;7.560;2024-02-26T11:11:28;10.90;57.70
56729;DHT22;42612;52.232;7.560;2024-02-26T11:13:56;10.90;57.80
56729;DHT22;42612;52.232;7.560;2024-02-26T11:16:23;10.90;57.80
56729;DHT22;42612;52.232;7.560;2024-02-26T11:18:52;10.90;57.80
56729;DHT22;42612;52.232;7.560;2024-02-26T11:21:21;10.90;57.70
56729;DHT22;42612;52.232;7.560;2024-02-26T11:24:13;10.90;57.70
56729;DHT22;42612;52.232;7.560;2024-02-26T11:26:45;10.90;57.70
56729;DHT22;42612;52.232;7.560;2024-02-26T11:29:20;10.90;57.70
56729;DHT22;42612;52.232;7.560;2024-02-26T11:31:47;10.90;57.70
56729;DHT22;42612;52.232;7.560;2024-02-26T11:34:13;10.90;57.80
56729;DHT22;42612;52.232;7.560;2024-02-26T11:36:39;10.80;57.80
56729;DHT22;42612;52.232;7.560;2024-02-26T11:39:05;10.80;57.90
56729;DHT22;42612;52.232;7.560;2024-02-26T11:41:32;10.70;58.00
56729;DHT22;42612;52.232;7.560;2024-02-26T11:43:58;10.70;58.00
56729;DHT22;42612;52.232;7.560;2024-02-26T11:46:38;10.70;58.10
56729;DHT22;42612;52.232;7.560;2024-02-26T11:51:57;10.70;58.20
56729;DHT22;42612;52.232;7.560;2024-02-26T11:54:56;10.70;58.10
56729;DHT22;42612;52.232;7.560;2024-02-26T11:57:40;10.70;58.30
56729;DHT22;42612;52.232;7.560;2024-02-26T12:02:44;10.70;58.00
56729;DHT22;42612;52.232;7.560;2024-02-26T12:05:14;10.70;58.30
56729;DHT22;42612;52.232;7.560;2024-02-26T12:07:55;10.60;58.20
56729;DHT22;42612;52.232;7.560;2024-02-26T12:12:55;10.70;58.30
56729;DHT22;42612;52.232;7.560;2024-02-26T12:15:27;10.70;58.30
56729;DHT22;42612;52.232;7.560;2024-02-26T12:17:56;10.60;58.20
56729;DHT22;42612;52.232;7.560;2024-02-26T12:20:22;10.60;58.40
56729;DHT22;42612;52.232;7.560;2024-02-26T12:22:50;10.60;58.50
56729;DHT22;42612;52.232;7.560;2024-02-26T12:25:23;10.60;58.50
56729;DHT22;42612;52.232;7.560;2024-02-26T12:27:51;10.60;58.50
56729;DHT22;42612;52.232;7.560;2024-02-26T12:30:17;10.60;58.60
56729;DHT22;42612;52.232;7.560;2024-02-26T12:32:43;10.60;58.50
56729;DHT22;42612;52.232;7.560;2024-02-26T12:35:09;10.70;58.50
56729;DHT22;42612;52.232;7.560;2024-02-26T12:37:35;10.70;58.60
56729;DHT22;42612;52.232;7.560;2024-02-26T12:40:04;10.70;58.60
56729;DHT22;42612;52.232;7.560;2024-02-26T12:42:33;10.70;58.50
56729;DHT22;42612;52.232;7.560;2024-02-26T12:45:06;10.80;58.40
56729;DHT22;42612;52.232;7.560;2024-02-26T12:47:38;10.80;58.40
56729;DHT22;42612;52.232;7.560;2024-02-26T12:50:05;10.80;58.30
56729;DHT22;42612;52.232;7.560;2024-02-26T12:52:33;10.80;58.40
56729;DHT22;42612;52.232;7.560;2024-02-26T12:55:00;10.80;58.40
56729;DHT22;42612;52.232;7.560;2024-02-26T12:57:29;10.80;58.30
56729;DHT22;42612;52.232;7.560;2024-02-26T12:59:59;10.80;58.10
56729;DHT22;42612;52.232;7.560;2024-02-26T13:02:26;10.80;58.20
56729;DHT22;42612;52.232;7.560;2024-02-26T13:04:53;10.70;58.10
56729;DHT22;42612;52.232;7.560;2024-02-26T13:07:20;10.70;58.10
56729;DHT22;42612;52.232;7.560;2024-02-26T13:09:46;10.70;58.90
56729;DHT22;42612;52.232;7.560;2024-02-26T13:12:12;10.60;58.30
56729;DHT22;42612;52.232;7.560;2024-02-26T13:14:39;10.60;59.20
56729;DHT22;42612;52.232;7.560;2024-02-26T13:17:05;10.60;58.60
56729;DHT22;42612;52.232;7.560;2024-02-26T13:19:30;10.60;58.60
56729;DHT22;42612;52.232;7.560;2024-02-26T13:22:03;10.60;58.70
56729;DHT22;42612;52.232;7.560;2024-02-26T13:24:32;10.60;58.70
56729;DHT22;42612;52.232;7.560;2024-02-26T13:27:00;10.70;58.70
56729;DHT22;42612;52.232;7.560;2024-02-26T13:29:28;10.70;58.70
56729;DHT22;42612;52.232;7.560;2024-02-26T13:31:58;10.80;58.80
56729;DHT22;42612;52.232;7.560;2024-02-26T13:34:28;10.80;58.70
56729;DHT22;42612;52.232;7.560;2024-02-26T13:37:15;10.80;58.70
56729;DHT22;42612;52.232;7.560;2024-02-26T13:39:41;10.80;58.90
56729;DHT22;42612;52.232;7.560;2024-02-26T13:42:08;10.90;58.80
56729;DHT22;42612;52.232;7.560;2024-02-26T13:44:34;10.90;58.70
56729;DHT22;42612;52.232;7.560;2024-02-26T13:47:04;11.00;58.70
56729;DHT22;42612;52.232;7.560;2024-02-26T13:49:30;11.00;58.60
56729;DHT22;42612;52.232;7.560;2024-02-26T13:51:56;11.10;58.70
56729;DHT22;42612;52.232;7.560;2024-02-26T13:54:21;11.10;58.50
56729;DHT22;42612;52.232;7.560;2024-02-26T13:56:47;11.10;58.40
56729;DHT22;42612;52.232;7.560;2024-02-26T13:59:13;11.10;58.30
56729;DHT22;42612;52.232;7.560;2024-02-26T14:01:38;11.20;58.30
56729;DHT22;42612;52.232;7.560;2024-02-26T14:04:04;11.20;58.40
56729;DHT22;42612;52.232;7.560;2024-02-26T14:06:30;11.10;58.30
56729;DHT22;42612;52.232;7.560;2024-02-26T14:08:56;11.20;58.20
56729;DHT22;42612;52.232;7.560;2024-02-26T14:11:21;11.10;58.20
56729;DHT22;42612;52.232;7.560;2024-02-26T14:13:47;11.10;58.20
56729;DHT22;42612;52.232;7.560;2024-02-26T14:16:13;11.10;58.30
56729;DHT22;42612;52.232;7.560;2024-02-26T14:18:39;11.10;58.40
56729;DHT22;42612;52.232;7.560;2024-02-26T14:21:04;11.10;58.30
56729;DHT22;42612;52.232;7.560;2024-02-26T14:23:30;11.10;58.30
56729;DHT22;42612;52.232;7.560;2024-02-26T14:25:56;11.10;58.40
56729;DHT22;42612;52.232;7.560;2024-02-26T14:28:21;11.10;58.40
56729;DHT22;42612;52.232;7.560;2024-02-26T14:30:49;11.10;58.50
56729;DHT22;42612;52.232;7.560;2024-02-26T14:33:15;11.10;58.60
56729;DHT22;42612;52.232;7.560;2024-02-26T14:35:41;11.10;58.70
56729;DHT22;42612;52.232;7.560;2024-02-26T14:38:06;11.10;58.60
56729;DHT22;42612;52.232;7.560;2024-02-26T14:40:32;11.10;58.40
56729;DHT22;42612;52.232;7.560;2024-02-26T14:42:58;11.10;58.50
56729;DHT22;42612;52.232;7.560;2024-02-26T14:45:25;11.10;58.60
56729;DHT22;42612;52.232;7.560;2024-02-26T14:47:51;11.10;58.60
56729;DHT22;42612;52.232;7.560;2024-02-26T14:50:17;11.10;58.60
56729;DHT22;42612;52.232;7.560;2024-02-26T14:52:43;11.10;58.50
56729;DHT22;42612;52.232;7.560;2024-02-26T14:55:09;11.10;58.50
56729;DHT22;42612;52.232;7.560;2024-02-26T14:57:34;11.00;58.50
56729;DHT22;42612;52.232;7.560;2024-02-26T15:00:00;11.00;58.60
56729;DHT22;42612;52.232;7.560;2024-02-26T15:02:26;11.00;58.60
56729;DHT22;42612;52.232;7.560;2024-02-26T15:04:52;10.90;58.70
56729;DHT22;42612;52.232;7.560;2024-02-26T15:07:17;10.90;58.70
56729;DHT22;42612;52.232;7.560;2024-02-26T15:09:45;10.90;58.70
56729;DHT22;42612;52.232;7.560;2024-02-26T15:12:11;10.90;58.80
56729;DHT22;42612;52.232;7.560;2024-02-26T15:14:37;10.80;58.70
56729;DHT22;42612;52.232;7.560;2024-02-26T15:17:03;10.80;58.80
56729;DHT22;42612;52.232;7.560;2024-02-26T15:19:30;10.80;59.00
56729;DHT22;42612;52.232;7.560;2024-02-26T15:21:55;10.80;59.10
56729;DHT22;42612;52.232;7.560;2024-02-26T15:24:21;10.70;59.30
56729;DHT22;42612;52.232;7.560;2024-02-26T15:26:47;10.70;59.50
56729;DHT22;42612;52.232;7.560;2024-02-26T15:29:13;10.70;59.80
56729;DHT22;42612;52.232;7.560;2024-02-26T15:31:39;10.70;59.90
56729;DHT22;42612;52.232;7.560;2024-02-26T15:34:04;10.60;59.90
56729;DHT22;42612;52.232;7.560;2024-02-26T15:36:30;10.60;60.10
56729;DHT22;42612;52.232;7.560;2024-02-26T15:38:56;10.60;60.20
56729;DHT22;42612;52.232;7.560;2024-02-26T15:41:25;10.60;60.20